Time;durP1;ratioP1;P1;durP2;ratioP2;P2;SDS_P1;SDS_P2;PMS_P1;PMS_P2;Temp;Humidity;BMP_temperature;BMP_pressure;BME280_temperature;BME280_humidity;BME280_pressure;Samples;Min_cycle;Max_cycle;Signal;HPM_P1;HPM_P2
2022/10/09 00:00:11;;;;;;;4.43;1.75;;;8.80;95.20;;;;;;5013628;28;20474;-61
2022/10/09 00:02:36;;;;;;;3.03;1.42;;;8.80;95.30;;;;;;5016915;28;20036;-61
2022/10/09 00:05:02;;;;;;;2.28;1.02;;;8.80;95.30;;;;;;5013995;28;20034;-61
2022/10/09 00:07:28;;;;;;;2.28;1.05;;;8.70;95.20;;;;;;5009961;28;20050;-61
2022/10/09 00:09:53;;;;;;;4.55;1.23;;;8.70;95.30;;;;;;5013880;28;20500;-61
2022/10/09 00:12:19;;;;;;;3.58;1.52;;;8.70;95.40;;;;;;5009936;28;20034;-61
2022/10/09 00:14:44;;;;;;;3.55;1.38;;;8.60;95.60;;;;;;5016853;28;20112;-61
2022/10/09 00:17:10;;;;;;;3.50;1.65;;;8.50;95.80;;;;;;5011863;28;20061;-61
2022/10/09 00:19:35;;;;;;;5.95;1.67;;;8.50;95.90;;;;;;5012124;28;20021;-61
2022/10/09 00:22:01;;;;;;;3.22;1.50;;;8.40;96.00;;;;;;5026266;28;20021;-61
2022/10/09 00:24:26;;;;;;;3.03;1.42;;;8.50;96.00;;;;;;5011852;28;20122;-61
2022/10/09 00:26:52;;;;;;;2.88;1.73;;;8.50;96.00;;;;;;5013829;28;20037;-61
2022/10/09 00:29:17;;;;;;;4.75;2.00;;;8.50;96.00;;;;;;5009313;28;20081;-61
2022/10/09 00:31:43;;;;;;;3.50;1.85;;;8.50;96.00;;;;;;5014623;28;20541;-61
2022/10/09 00:34:08;;;;;;;6.20;2.97;;;8.50;96.00;;;;;;5016140;28;20048;-61
2022/10/09 00:36:34;;;;;;;3.40;1.60;;;8.50;96.00;;;;;;5009655;28;20025;-61
2022/10/09 00:38:59;;;;;;;3.08;0.90;;;8.50;96.00;;;;;;5012702;28;20037;-61
2022/10/09 00:41:28;;;;;;;2.53;1.40;;;8.40;96.00;;;;;;5034480;28;20038;-61
2022/10/09 00:43:57;;;;;;;2.33;1.08;;;8.40;96.10;;;;;;5039850;28;20025;-61
2022/10/09 00:46:45;;;;;;;1.60;0.60;;;8.40;96.20;;;;;;5017867;28;20040;-61
2022/10/09 00:49:29;;;;;;;1.98;0.80;;;8.40;96.20;;;;;;5013933;28;20029;-61
2022/10/09 00:51:58;;;;;;;2.40;0.85;;;8.30;96.30;;;;;;5015085;28;20030;-61
2022/10/09 00:54:27;;;;;;;3.10;0.70;;;8.30;96.40;;;;;;5014511;28;20041;-61
2022/10/09 00:56:53;;;;;;;2.55;1.10;;;8.30;96.40;;;;;;5015167;28;20144;-61
2022/10/09 00:59:19;;;;;;;2.83;0.90;;;8.20;96.40;;;;;;5012813;28;20033;-61
2022/10/09 01:01:45;;;;;;;3.85;1.17;;;8.20;96.40;;;;;;5018206;28;20022;-61
2022/10/09 01:04:11;;;;;;;4.15;1.27;;;8.20;96.40;;;;;;5014504;28;20037;-61
2022/10/09 01:07:04;;;;;;;1.88;1.10;;;8.20;96.40;;;;;;5015464;28;20281;-61
2022/10/09 01:09:48;;;;;;;2.88;1.10;;;8.30;96.50;;;;;;5021953;28;20021;-61
2022/10/09 01:12:22;;;;;;;1.73;0.90;;;8.20;96.50;;;;;;5013995;28;20100;-61
2022/10/09 01:15:16;;;;;;;0.90;0.60;;;8.10;96.60;;;;;;5017254;28;20017;-61
2022/10/09 01:17:57;;;;;;;1.50;0.75;;;8.10;96.60;;;;;;5016494;28;20397;-61
2022/10/09 01:20:38;;;;;;;1.17;0.70;;;8.10;96.70;;;;;;5019454;28;20024;-61
2022/10/09 01:23:18;;;;;;;4.78;0.73;;;8.00;96.80;;;;;;5020249;28;20030;-61
2022/10/09 01:25:50;;;;;;;1.48;0.70;;;8.00;96.80;;;;;;5017801;28;20036;-61
2022/10/09 01:28:19;;;;;;;1.67;0.85;;;7.90;97.10;;;;;;5015746;28;20022;-61
2022/10/09 01:30:46;;;;;;;4.53;1.20;;;8.00;96.90;;;;;;5029241;28;20074;-61
2022/10/09 01:33:12;;;;;;;2.13;1.00;;;7.90;96.90;;;;;;5019750;28;20372;-61
2022/10/09 01:35:40;;;;;;;3.40;1.20;;;7.90;96.90;;;;;;5011810;28;20025;-61
2022/10/09 01:38:06;;;;;;;3.03;1.00;;;7.90;96.90;;;;;;5026047;28;20532;-61
2022/10/09 01:40:31;;;;;;;2.53;1.10;;;7.90;96.90;;;;;;5015677;28;20025;-61
2022/10/09 01:42:58;;;;;;;2.95;1.10;;;7.90;96.90;;;;;;5013870;28;20751;-61
2022/10/09 01:45:24;;;;;;;1.35;0.60;;;7.90;96.90;;;;;;5016538;28;20059;-61
2022/10/09 01:47:49;;;;;;;1.80;0.70;;;7.80;97.10;;;;;;5019054;28;20033;-61
2022/10/09 01:50:31;;;;;;;2.25;1.08;;;7.70;97.30;;;;;;5014785;28;20030;-61
2022/10/09 01:53:02;;;;;;;4.65;0.90;;;7.70;97.40;;;;;;5014563;28;20088;-61
2022/10/09 01:55:45;;;;;;;3.17;0.80;;;7.60;97.80;;;;;;5012703;28;20018;-61
2022/10/09 01:58:20;;;;;;;4.50;0.70;;;7.50;97.60;;;;;;5013180;28;20474;-61
2022/10/09 02:01:09;;;;;;;3.20;1.00;;;7.50;97.70;;;;;;5016122;28;20033;-61
2022/10/09 02:03:39;;;;;;;1.73;0.85;;;7.50;97.70;;;;;;5011639;28;20362;-61
2022/10/09 02:06:06;;;;;;;;;;;7.50;97.70;;;;;;5013563;28;20057;-61
2022/10/09 02:08:33;;;;;;;2.10;1.10;;;7.40;97.60;;;;;;5012466;28;19909;-61
2022/10/09 02:11:02;;;;;;;2.42;0.90;;;7.40;97.80;;;;;;5011840;28;20375;-61
2022/10/09 02:13:29;;;;;;;3.75;1.52;;;7.50;97.80;;;;;;5014779;28;20022;-61
2022/10/09 02:16:19;;;;;;;1.73;1.20;;;7.50;97.80;;;;;;5014223;28;20053;-61
2022/10/09 02:18:48;;;;;;;2.60;1.05;;;7.50;97.70;;;;;;5019546;28;20025;-61
2022/10/09 02:21:25;;;;;;;1.40;0.93;;;7.50;97.80;;;;;;5013829;28;20391;-61
2022/10/09 02:23:52;;;;;;;12.68;1.73;;;7.50;97.80;;;;;;5012122;28;20026;-61
2022/10/09 02:26:18;;;;;;;4.80;0.90;;;7.50;97.80;;;;;;5017807;28;20424;-61
2022/10/09 02:28:44;;;;;;;1.17;0.75;;;7.50;97.80;;;;;;5018164;28;20026;-61
2022/10/09 02:31:16;;;;;;;0.68;0.47;;;7.50;97.80;;;;;;5029697;28;20412;-61
2022/10/09 02:33:42;;;;;;;1.42;0.82;;;7.40;97.80;;;;;;5017749;28;20034;-61
2022/10/09 02:36:08;;;;;;;1.02;0.73;;;7.40;97.90;;;;;;5013043;28;20033;-61
2022/10/09 02:38:33;;;;;;;4.03;2.05;;;7.40;97.90;;;;;;5012309;28;20022;-61
2022/10/09 02:41:00;;;;;;;6.68;2.72;;;7.40;98.00;;;;;;5013663;28;20025;-60
2022/10/09 02:43:26;;;;;;;7.38;3.72;;;7.30;98.20;;;;;;5014682;28;20029;-61
2022/10/09 02:45:51;;;;;;;5.80;3.72;;;7.30;98.50;;;;;;5010715;28;20532;-61
2022/10/09 02:48:17;;;;;;;4.82;3.10;;;7.20;98.80;;;;;;5011073;28;20038;-61
2022/10/09 02:50:43;;;;;;;7.55;3.58;;;7.20;99.20;;;;;;5012634;28;20033;-61
2022/10/09 02:53:08;;;;;;;5.93;3.63;;;7.10;99.60;;;;;;5012413;28;20022;-61
2022/10/09 02:55:35;;;;;;;7.20;3.58;;;7.10;99.80;;;;;;5016528;28;20080;-61
2022/10/09 02:58:01;;;;;;;5.63;2.50;;;7.10;99.90;;;;;;5010912;28;20501;-61
2022/10/09 03:00:26;;;;;;;6.63;2.65;;;7.10;99.90;;;;;;5011069;28;20026;-61
2022/10/09 03:02:52;;;;;;;3.90;2.63;;;7.10;99.90;;;;;;5014134;28;20109;-61
2022/10/09 03:05:17;;;;;;;6.10;3.55;;;7.10;99.90;;;;;;5014167;28;20478;-61
2022/10/09 03:07:49;;;;;;;11.65;4.93;;;7.10;99.90;;;;;;5010578;28;20060;-61
2022/10/09 03:10:19;;;;;;;5.72;3.78;;;7.00;99.90;;;;;;5025646;28;20480;-61
2022/10/09 03:12:44;;;;;;;4.63;3.10;;;7.00;99.90;;;;;;5011119;28;20038;-61
2022/10/09 03:15:11;;;;;;;3.03;2.33;;;7.00;99.90;;;;;;5011936;28;20033;-61
2022/10/09 03:17:36;;;;;;;5.35;3.22;;;7.00;99.90;;;;;;5012238;28;20474;-61
2022/10/09 03:20:02;;;;;;;6.38;3.60;;;7.00;99.90;;;;;;5014691;28;20037;-61
2022/10/09 03:22:28;;;;;;;7.63;3.70;;;6.90;99.90;;;;;;5012858;28;20021;-61
2022/10/09 03:24:53;;;;;;;9.15;3.85;;;6.90;99.90;;;;;;5016559;28;20037;-61
2022/10/09 03:27:19;;;;;;;7.32;3.30;;;6.90;99.90;;;;;;5012929;28;20036;-61
2022/10/09 03:29:45;;;;;;;5.70;3.10;;;6.90;99.90;;;;;;5016357;28;20018;-61
2022/10/09 03:32:10;;;;;;;5.63;2.75;;;6.80;99.90;;;;;;5018382;28;20032;-61
2022/10/09 03:34:36;;;;;;;5.68;3.45;;;6.90;99.90;;;;;;5013120;28;20029;-61
2022/10/09 03:37:01;;;;;;;8.50;3.83;;;6.80;99.90;;;;;;5014462;28;20026;-61
2022/10/09 03:39:27;;;;;;;7.47;4.28;;;6.80;99.90;;;;;;5012058;28;20478;-61
2022/10/09 03:41:52;;;;;;;6.47;3.85;;;6.70;99.90;;;;;;5011227;28;20427;-61
2022/10/09 03:44:18;;;;;;;10.10;3.95;;;6.70;99.90;;;;;;5012605;28;20401;-61
2022/10/09 03:46:43;;;;;;;5.82;3.60;;;6.70;99.90;;;;;;5015960;28;20035;-61
2022/10/09 03:49:09;;;;;;;2.33;2.10;;;6.60;99.90;;;;;;5012599;28;20401;-61
2022/10/09 03:51:35;;;;;;;4.05;2.33;;;6.70;99.90;;;;;;5025500;28;20498;-61
2022/10/09 03:54:00;;;;;;;3.38;2.25;;;6.70;99.90;;;;;;5024157;28;20035;-61
2022/10/09 03:56:26;;;;;;;5.50;2.70;;;6.80;99.90;;;;;;5012355;28;20026;-61
2022/10/09 03:58:51;;;;;;;7.50;3.05;;;6.80;99.90;;;;;;5015093;28;20436;-61
2022/10/09 04:01:17;;;;;;;9.65;4.85;;;6.70;99.90;;;;;;5014998;28;20025;-61
2022/10/09 04:03:42;;;;;;;6.65;3.10;;;6.70;99.90;;;;;;5011449;28;20026;-61
2022/10/09 04:06:08;;;;;;;7.63;3.15;;;6.70;99.90;;;;;;5009958;28;20108;-61
2022/10/09 04:08:34;;;;;;;8.48;3.40;;;6.70;99.90;;;;;;5013323;28;20123;-61
2022/10/09 04:11:00;;;;;;;7.97;3.80;;;6.70;99.90;;;;;;5026278;28;20029;-63
2022/10/09 04:13:26;;;;;;;7.25;3.22;;;6.70;99.90;;;;;;5011550;28;20100;-61
2022/10/09 04:15:53;;;;;;;6.22;3.33;;;6.70;99.90;;;;;;5014804;28;20033;-61
2022/10/09 04:18:18;;;;;;;6.40;3.20;;;6.70;99.90;;;;;;5014464;28;20022;-61
2022/10/09 04:20:48;;;;;;;7.15;3.30;;;6.60;99.90;;;;;;5017589;28;20409;-61
2022/10/09 04:23:14;;;;;;;;;;;6.60;99.90;;;;;;5043589;28;20022;-61
2022/10/09 04:25:39;;;;;;;6.72;3.00;;;6.50;99.90;;;;;;5016867;28;20721;-61
2022/10/09 04:28:05;;;;;;;3.88;2.50;;;6.50;99.90;;;;;;5027487;28;20134;-61
2022/10/09 04:30:30;;;;;;;7.53;2.70;;;6.50;99.90;;;;;;5027732;28;20021;-61
2022/10/09 04:32:56;;;;;;;3.03;2.13;;;6.50;99.90;;;;;;5015635;28;20038;-61
2022/10/09 04:35:21;;;;;;;3.00;1.98;;;6.50;99.90;;;;;;5017061;28;20350;-61
2022/10/09 04:37:47;;;;;;;2.60;1.63;;;6.50;99.90;;;;;;5038245;28;20355;-61
2022/10/09 04:40:12;;;;;;;3.20;1.45;;;6.50;99.90;;;;;;5013296;28;20108;-61
2022/10/09 04:42:38;;;;;;;4.82;1.92;;;6.50;99.90;;;;;;5017276;28;20053;-61
2022/10/09 04:45:04;;;;;;;5.72;2.55;;;6.50;99.90;;;;;;5020544;28;20445;-61
2022/10/09 04:47:30;;;;;;;5.68;3.00;;;6.50;99.90;;;;;;5014446;28;20034;-61
2022/10/09 04:49:56;;;;;;;5.95;3.13;;;6.50;99.90;;;;;;5013898;28;20034;-61
2022/10/09 04:52:21;;;;;;;5.45;3.33;;;6.40;99.90;;;;;;5014497;28;20121;-61
2022/10/09 04:54:47;;;;;;;8.80;3.40;;;6.40;99.90;;;;;;5021868;28;20100;-61
2022/10/09 04:57:12;;;;;;;8.30;3.90;;;6.40;99.90;;;;;;5022176;28;20036;-61
2022/10/09 04:59:38;;;;;;;10.40;4.70;;;6.40;99.90;;;;;;5029355;28;20026;-61
2022/10/09 05:02:03;;;;;;;7.97;4.80;;;6.40;99.90;;;;;;5031226;28;20022;-61
2022/10/09 05:04:29;;;;;;;6.50;4.10;;;6.30;99.90;;;;;;5031142;28;20042;-61
2022/10/09 05:06:54;;;;;;;9.55;4.15;;;6.30;99.90;;;;;;5032542;28;20042;-63
2022/10/09 05:09:20;;;;;;;11.30;5.15;;;6.20;99.90;;;;;;5030985;28;20063;-63
2022/10/09 05:11:45;;;;;;;7.43;4.63;;;6.20;99.90;;;;;;5031681;28;20038;-63
2022/10/09 05:14:11;;;;;;;9.32;4.63;;;6.20;99.90;;;;;;5018452;28;20076;-63
2022/10/09 05:16:36;;;;;;;7.68;3.55;;;6.20;99.90;;;;;;5020966;28;20032;-63
2022/10/09 05:19:02;;;;;;;6.22;4.18;;;6.20;99.90;;;;;;5030630;28;20470;-61
2022/10/09 05:21:38;;;;;;;7.93;3.50;;;6.20;99.90;;;;;;5013111;28;20513;-61
2022/10/09 05:24:04;;;;;;;5.38;3.00;;;6.20;99.90;;;;;;5014447;28;20029;-61
2022/10/09 05:26:30;;;;;;;5.00;2.40;;;6.30;99.90;;;;;;5030773;28;20041;-60
2022/10/09 05:28:56;;;;;;;4.13;2.40;;;6.30;99.90;;;;;;5030015;28;20032;-61
2022/10/09 05:31:27;;;;;;;2.72;2.10;;;6.30;99.90;;;;;;5029593;28;20454;-61
2022/10/09 05:33:53;;;;;;;5.28;2.78;;;6.40;99.90;;;;;;5029460;28;20021;-61
2022/10/09 05:36:19;;;;;;;6.80;2.40;;;6.40;99.90;;;;;;5030707;28;20096;-61
2022/10/09 05:38:45;;;;;;;4.47;2.70;;;6.40;99.90;;;;;;5038245;28;20028;-61
2022/10/09 05:41:13;;;;;;;5.60;2.58;;;6.40;99.90;;;;;;5029837;28;20069;-61
2022/10/09 05:43:42;;;;;;;3.92;2.42;;;6.40;99.90;;;;;;5027152;28;20029;-61
2022/10/09 05:46:22;;;;;;;4.88;2.50;;;6.40;99.90;;;;;;5030381;28;20060;-61
2022/10/09 05:48:56;;;;;;;2.40;2.00;;;6.40;99.90;;;;;;5031016;28;20229;-61
2022/10/09 05:51:27;;;;;;;4.82;2.20;;;6.40;99.90;;;;;;5027540;28;20030;-61
2022/10/09 05:53:53;;;;;;;4.13;1.80;;;6.40;99.90;;;;;;5018539;28;20025;-61
2022/10/09 05:56:22;;;;;;;2.67;1.73;;;6.40;99.90;;;;;;5031210;28;20044;-61
2022/10/09 05:58:56;;;;;;;4.05;2.22;;;6.40;99.90;;;;;;5031153;28;20551;-61
2022/10/09 06:01:24;;;;;;;5.47;2.75;;;6.40;99.90;;;;;;5024815;28;20029;-61
2022/10/09 06:03:51;;;;;;;4.70;2.42;;;6.30;99.90;;;;;;5031379;28;20136;-63
2022/10/09 06:06:18;;;;;;;2.60;1.95;;;6.30;99.90;;;;;;5027444;28;20076;-63
2022/10/09 06:08:43;;;;;;;9.88;4.20;;;6.30;99.90;;;;;;5031227;28;20030;-63
2022/10/09 06:11:11;;;;;;;7.53;4.13;;;6.30;99.90;;;;;;5028301;28;20378;-61
2022/10/09 06:13:37;;;;;;;9.93;4.50;;;6.30;99.90;;;;;;5028818;28;20127;-61
2022/10/09 06:16:03;;;;;;;8.02;3.85;;;6.20;99.90;;;;;;5009716;28;20057;-61
2022/10/09 06:18:29;;;;;;;9.85;4.03;;;6.20;99.90;;;;;;5022017;28;20393;-61
2022/10/09 06:21:00;;;;;;;6.60;3.67;;;6.20;99.90;;;;;;5028859;28;20426;-61
2022/10/09 06:23:26;;;;;;;4.20;3.45;;;6.20;99.90;;;;;;5029532;28;20104;-61
2022/10/09 06:25:53;;;;;;;4.72;3.42;;;6.20;99.90;;;;;;5029060;28;20021;-61
2022/10/09 06:28:18;;;;;;;9.25;4.25;;;6.20;99.90;;;;;;5030028;28;20540;-61
2022/10/09 06:30:44;;;;;;;7.95;4.05;;;6.20;99.90;;;;;;5024372;28;20041;-61
2022/10/09 06:33:09;;;;;;;7.45;4.43;;;6.20;99.90;;;;;;5011487;28;20034;-61
2022/10/09 06:35:35;;;;;;;10.82;4.78;;;6.10;99.90;;;;;;5011818;28;20547;-61
2022/10/09 06:38:00;;;;;;;8.88;5.18;;;6.10;99.90;;;;;;5024346;28;20041;-61
2022/10/09 06:40:26;;;;;;;9.68;5.40;;;6.10;99.90;;;;;;5033015;28;20025;-61
2022/10/09 06:42:51;;;;;;;8.50;5.30;;;6.20;99.90;;;;;;5030392;28;20045;-61
2022/10/09 06:45:17;;;;;;;8.88;5.43;;;6.20;99.90;;;;;;5028014;28;20576;-63
2022/10/09 06:47:42;;;;;;;14.93;5.47;;;6.20;99.90;;;;;;5014575;28;20029;-63
2022/10/09 06:50:08;;;;;;;8.80;5.57;;;6.20;99.90;;;;;;5028248;28;20031;-61
2022/10/09 06:52:34;;;;;;;11.98;6.43;;;6.20;99.90;;;;;;5019273;28;20131;-61
2022/10/09 06:54:59;;;;;;;10.60;5.70;;;6.30;99.90;;;;;;5029853;28;20033;-61
2022/10/09 06:57:25;;;;;;;11.05;6.10;;;6.30;99.90;;;;;;5027225;28;20029;-61
2022/10/09 06:59:50;;;;;;;9.90;5.53;;;6.40;99.90;;;;;;5025437;28;20026;-61
2022/10/09 07:02:16;;;;;;;8.73;5.18;;;6.40;99.90;;;;;;5026213;28;20580;-61
2022/10/09 07:04:42;;;;;;;10.77;6.25;;;6.40;99.90;;;;;;5022995;28;20108;-61
2022/10/09 07:07:07;;;;;;;7.78;5.50;;;6.50;99.90;;;;;;5026286;28;20048;-61
2022/10/09 07:09:33;;;;;;;10.85;6.57;;;6.50;99.90;;;;;;5025164;28;20029;-61
2022/10/09 07:11:59;;;;;;;12.07;6.90;;;6.60;99.90;;;;;;5028762;28;20033;-61
2022/10/09 07:14:24;;;;;;;12.65;7.22;;;6.70;99.90;;;;;;5031753;28;20032;-61
2022/10/09 07:16:50;;;;;;;11.90;7.75;;;6.70;99.90;;;;;;5025500;28;20059;-62
2022/10/09 07:19:17;;;;;;;12.23;7.10;;;6.80;99.90;;;;;;5024380;28;20385;-61
2022/10/09 07:21:44;;;;;;;10.93;7.53;;;6.80;99.90;;;;;;5025377;28;20032;-61
2022/10/09 07:24:11;;;;;;;11.07;7.43;;;6.90;99.90;;;;;;5026162;28;20026;-61
2022/10/09 07:26:39;;;;;;;13.35;7.22;;;7.00;99.90;;;;;;5010535;28;20041;-61
2022/10/09 07:29:07;;;;;;;15.02;8.60;;;7.10;99.90;;;;;;5027433;28;20033;-61
2022/10/09 07:31:33;;;;;;;14.13;8.30;;;7.20;99.90;;;;;;5025779;28;20108;-61
2022/10/09 07:33:58;;;;;;;11.98;7.85;;;7.30;99.90;;;;;;5029509;28;20112;-61
2022/10/09 07:36:24;;;;;;;14.70;8.23;;;7.30;99.90;;;;;;5028159;28;20101;-61
2022/10/09 07:38:55;;;;;;;13.35;8.73;;;7.40;99.90;;;;;;5025365;28;20049;-61
2022/10/09 07:41:22;;;;;;;13.23;7.90;;;7.50;99.90;;;;;;5029265;28;20054;-61
2022/10/09 07:43:48;;;;;;;12.38;8.02;;;7.60;99.90;;;;;;5028088;28;20052;-61
2022/10/09 07:46:15;;;;;;;11.73;8.13;;;7.70;99.90;;;;;;5029525;28;20107;-62
2022/10/09 07:48:41;;;;;;;10.35;7.40;;;7.80;99.90;;;;;;5028101;28;20025;-61
2022/10/09 07:51:09;;;;;;;9.77;6.45;;;7.90;99.90;;;;;;5028995;28;20029;-62
2022/10/09 07:53:34;;;;;;;12.73;7.57;;;8.00;99.90;;;;;;5027744;28;20017;-61
2022/10/09 07:56:00;;;;;;;16.95;9.85;;;8.10;99.90;;;;;;5028138;28;20259;-62
2022/10/09 07:58:25;;;;;;;15.90;7.72;;;8.20;99.90;;;;;;5028657;28;20523;-62
2022/10/09 08:00:51;;;;;;;15.70;9.50;;;8.30;99.90;;;;;;5028891;28;20489;-62
2022/10/09 08:03:16;;;;;;;16.20;9.13;;;8.30;99.90;;;;;;5027462;28;20116;-62
2022/10/09 08:05:42;;;;;;;14.32;8.65;;;8.40;99.90;;;;;;5027991;28;20113;-61
2022/10/09 08:08:07;;;;;;;14.68;9.48;;;8.50;99.90;;;;;;5028167;28;20038;-62
2022/10/09 08:10:33;;;;;;;14.82;9.50;;;8.60;99.90;;;;;;5028195;28;20065;-61
2022/10/09 08:12:59;;;;;;;13.10;9.82;;;8.70;99.90;;;;;;5028893;28;20038;-61
2022/10/09 08:15:25;;;;;;;14.52;10.48;;;8.80;99.90;;;;;;5027535;28;20037;-61
2022/10/09 08:17:54;;;;;;;15.50;9.32;;;8.90;99.90;;;;;;5028090;28;20382;-61
2022/10/09 08:20:20;;;;;;;13.30;8.30;;;9.00;99.90;;;;;;5028573;28;20018;-62
2022/10/09 08:22:45;;;;;;;13.90;8.73;;;9.10;99.90;;;;;;5028417;28;20119;-62
2022/10/09 08:25:11;;;;;;;19.30;8.95;;;9.20;99.90;;;;;;5029026;28;20033;-62
2022/10/09 08:27:37;;;;;;;13.98;8.57;;;9.30;99.90;;;;;;5044265;28;20029;-61
2022/10/09 08:30:03;;;;;;;16.83;8.65;;;9.40;99.90;;;;;;5026407;28;20163;-61
2022/10/09 08:32:28;;;;;;;14.90;8.90;;;9.50;99.90;;;;;;5027138;28;20477;-62
2022/10/09 08:34:54;;;;;;;12.15;7.90;;;9.60;99.90;;;;;;5026371;28;20059;-62
2022/10/09 08:37:21;;;;;;;13.23;7.97;;;9.70;99.90;;;;;;5027733;28;20029;-62
2022/10/09 08:39:49;;;;;;;13.93;7.45;;;9.80;99.90;;;;;;5027753;28;20055;-61
2022/10/09 08:42:31;;;;;;;12.13;7.30;;;10.00;99.90;;;;;;5024634;28;20124;-62
2022/10/09 08:44:57;;;;;;;11.18;7.25;;;10.10;99.90;;;;;;5027815;28;20057;-62
2022/10/09 08:47:57;;;;;;;12.48;8.05;;;10.20;99.90;;;;;;5027141;28;20061;-62
2022/10/09 08:50:33;;;;;;;14.60;7.22;;;10.30;99.90;;;;;;5028668;28;20088;-62
2022/10/09 08:53:04;;;;;;;14.50;6.95;;;10.40;99.90;;;;;;5022373;28;20061;-62
2022/10/09 08:55:46;;;;;;;14.07;7.65;;;10.50;99.90;;;;;;5043149;28;20033;-62
2022/10/09 08:58:16;;;;;;;14.25;6.60;;;10.70;99.90;;;;;;5017481;28;20022;-62
2022/10/09 09:00:51;;;;;;;13.75;7.20;;;10.80;99.90;;;;;;5019782;28;20026;-62
2022/10/09 09:03:35;;;;;;;15.40;7.78;;;10.90;99.90;;;;;;5034559;28;20025;-62
2022/10/09 09:06:03;;;;;;;14.57;6.85;;;11.00;99.90;;;;;;5034347;28;20065;-62
2022/10/09 09:09:06;;;;;;;15.95;7.20;;;11.10;99.90;;;;;;5037320;28;20497;-62
2022/10/09 09:11:52;;;;;;;13.52;7.30;;;11.30;99.90;;;;;;5025725;28;20112;-62
2022/10/09 09:14:42;;;;;;;12.85;6.80;;;11.30;99.90;;;;;;5033880;28;20409;-62
2022/10/09 09:17:19;;;;;;;16.02;7.25;;;11.40;99.90;;;;;;5031597;28;20480;-62
2022/10/09 09:20:18;;;;;;;12.13;6.10;;;11.50;99.90;;;;;;5033930;28;20021;-62
2022/10/09 09:22:48;;;;;;;9.57;6.15;;;11.70;99.90;;;;;;5030492;28;20014;-62
2022/10/09 09:25:21;;;;;;;15.77;6.72;;;11.70;99.70;;;;;;5045450;28;20029;-62
2022/10/09 09:27:47;;;;;;;12.40;6.20;;;11.90;99.40;;;;;;5048102;28;20025;-61
2022/10/09 09:30:44;;;;;;;11.82;6.13;;;12.00;99.20;;;;;;5029862;28;20033;-62
2022/10/09 09:33:41;;;;;;;12.60;6.38;;;12.10;98.80;;;;;;5035381;28;20423;-62
2022/10/09 09:36:19;;;;;;;13.88;6.63;;;12.20;98.60;;;;;;5035530;28;20453;-62
2022/10/09 09:38:45;;;;;;;11.02;5.90;;;12.40;98.30;;;;;;5025826;28;20033;-62
2022/10/09 09:41:11;;;;;;;9.57;5.65;;;12.60;97.70;;;;;;5038675;28;20044;-62
2022/10/09 09:43:37;;;;;;;11.45;6.00;;;12.70;97.50;;;;;;5045708;28;20037;-62
2022/10/09 09:46:08;;;;;;;10.25;5.95;;;12.90;96.90;;;;;;5037992;28;20018;-62
2022/10/09 09:48:40;;;;;;;13.80;6.10;;;13.00;96.10;;;;;;5034157;28;20033;-62
2022/10/09 09:51:27;;;;;;;10.48;5.85;;;13.20;96.10;;;;;;5048423;28;20025;-62
2022/10/09 09:54:00;;;;;;;12.63;6.03;;;13.50;95.90;;;;;;5022715;28;20104;-62
2022/10/09 09:56:41;;;;;;;10.20;5.57;;;13.60;94.90;;;;;;5018241;28;20301;-62
2022/10/09 09:59:23;;;;;;;12.15;5.95;;;13.80;94.30;;;;;;5029270;28;20095;-62
2022/10/09 10:02:16;;;;;;;10.65;5.57;;;14.00;94.20;;;;;;5029197;28;20076;-62
2022/10/09 10:05:37;;;;;;;11.98;5.40;;;14.30;93.20;;;;;;5023462;28;20026;-62
2022/10/09 10:08:23;;;;;;;10.77;4.55;;;14.50;92.40;;;;;;5036734;28;20076;-62
2022/10/09 10:10:51;;;;;;;9.70;4.88;;;14.90;92.30;;;;;;5032347;28;20441;-63
2022/10/09 10:13:20;;;;;;;11.57;4.22;;;15.20;90.90;;;;;;5039698;28;20080;-62
2022/10/09 10:15:53;;;;;;;6.72;3.47;;;15.60;89.10;;;;;;5048491;28;20017;-62
2022/10/09 10:18:20;;;;;;;10.05;4.65;;;17.20;84.50;;;;;;5039360;28;20021;-62
2022/10/09 10:20:53;;;;;;;9.95;4.40;;;19.60;78.30;;;;;;5020032;28;20075;-63
2022/10/09 10:23:28;;;;;;;8.52;4.93;;;21.50;67.70;;;;;;5030581;28;20024;-63
2022/10/09 10:25:56;;;;;;;6.28;3.22;;;22.80;62.40;;;;;;5036754;28;20057;-63
2022/10/09 10:28:28;;;;;;;7.70;3.03;;;24.00;58.10;;;;;;5020622;28;20026;-63
2022/10/09 10:30:56;;;;;;;6.60;2.78;;;25.80;56.20;;;;;;5033742;28;20017;-63
2022/10/09 10:33:26;;;;;;;5.65;3.10;;;27.20;50.00;;;;;;5040544;28;20068;-63
2022/10/09 10:35:54;;;;;;;5.18;3.20;;;28.40;48.30;;;;;;5021627;28;20033;-63
2022/10/09 10:38:29;;;;;;;5.85;2.58;;;29.60;45.00;;;;;;5023246;28;20022;-63
2022/10/09 10:41:04;;;;;;;6.20;2.70;;;30.70;44.60;;;;;;5035902;28;20021;-63
2022/10/09 10:44:13;;;;;;;6.78;3.30;;;32.30;41.30;;;;;;5038551;28;20088;-63
2022/10/09 10:46:58;;;;;;;9.75;2.88;;;32.10;38.50;;;;;;5019054;28;20034;-63
2022/10/09 10:49:27;;;;;;;6.93;2.97;;;31.80;38.90;;;;;;5032906;28;20025;-63
2022/10/09 10:52:23;;;;;;;5.28;2.13;;;32.10;38.50;;;;;;5032055;28;20025;-63
2022/10/09 10:55:03;;;;;;;5.43;2.72;;;33.40;39.10;;;;;;5032420;28;20029;-63
2022/10/09 10:57:34;;;;;;;6.00;2.70;;;33.30;37.00;;;;;;5032712;28;20029;-63
2022/10/09 11:00:05;;;;;;;3.75;2.28;;;32.60;36.70;;;;;;5032048;28;20470;-64
2022/10/09 11:02:50;;;;;;;3.78;2.28;;;32.50;36.50;;;;;;5032891;28;20033;-64
2022/10/09 11:05:42;;;;;;;4.82;2.15;;;32.70;37.10;;;;;;5022122;28;20049;-64
2022/10/09 11:08:34;;;;;;;4.40;2.20;;;33.90;37.00;;;;;;5032509;28;20017;-64
2022/10/09 11:11:25;;;;;;;6.38;2.40;;;33.70;34.70;;;;;;5031073;28;20359;-64
2022/10/09 11:14:06;;;;;;;5.22;3.25;;;33.90;34.90;;;;;;5032264;28;20044;-64
2022/10/09 11:17:02;;;;;;;4.20;2.33;;;33.00;34.50;;;;;;5021274;28;20032;-63
2022/10/09 11:19:46;;;;;;;4.50;2.45;;;32.70;36.10;;;;;;5031073;28;20621;-63
2022/10/09 11:22:17;;;;;;;5.55;2.33;;;32.80;35.30;;;;;;5032085;28;20025;-64
2022/10/09 11:24:48;;;;;;;4.63;1.75;;;32.70;36.20;;;;;;5026743;28;20021;-63
2022/10/09 11:27:41;;;;;;;4.15;1.90;;;33.70;36.10;;;;;;5031228;28;20523;-63
2022/10/09 11:30:17;;;;;;;3.75;2.15;;;34.20;33.80;;;;;;5031990;28;20039;-64
2022/10/09 11:32:54;;;;;;;5.20;2.05;;;33.90;34.10;;;;;;5028260;28;20452;-64
2022/10/09 11:35:22;;;;;;;6.50;2.20;;;33.50;34.10;;;;;;5019249;28;20027;-63
2022/10/09 11:37:59;;;;;;;4.80;1.90;;;33.40;33.90;;;;;;5019208;28;20028;-63
2022/10/09 11:40:31;;;;;;;3.40;1.77;;;34.50;33.80;;;;;;5028117;28;20075;-64
2022/10/09 11:43:15;;;;;;;5.10;2.10;;;34.50;33.70;;;;;;5032529;28;20490;-63
2022/10/09 11:45:51;;;;;;;5.00;2.28;;;34.50;32.70;;;;;;5032169;28;20048;-64
2022/10/09 11:48:29;;;;;;;4.13;2.28;;;34.10;32.40;;;;;;5030808;28;20389;-63
2022/10/09 11:51:28;;;;;;;5.55;2.67;;;32.80;33.50;;;;;;5031384;28;20100;-64
2022/10/09 11:53:54;;;;;;;5.30;2.30;;;32.00;34.70;;;;;;5013615;28;20156;-63
2022/10/09 11:56:31;;;;;;;3.17;1.40;;;32.10;34.70;;;;;;5025269;28;20478;-64
2022/10/09 11:59:06;;;;;;;3.17;1.63;;;33.40;34.50;;;;;;5012828;28;20474;-64
2022/10/09 12:01:38;;;;;;;2.80;2.00;;;33.50;34.00;;;;;;5017193;28;20148;-63
2022/10/09 12:04:12;;;;;;;4.38;2.15;;;33.00;33.20;;;;;;5032590;28;20025;-63
2022/10/09 12:06:50;;;;;;;3.83;1.65;;;32.60;33.70;;;;;;5030483;28;20029;-63
2022/10/09 12:09:24;;;;;;;5.57;1.70;;;32.70;34.00;;;;;;5029852;28;20025;-63
2022/10/09 12:12:23;;;;;;;4.82;2.08;;;33.00;33.70;;;;;;5029069;28;20025;-63
2022/10/09 12:14:51;;;;;;;5.05;2.20;;;32.90;33.60;;;;;;5026598;28;20034;-63
2022/10/09 12:17:22;;;;;;;4.28;1.77;;;32.80;33.90;;;;;;5029999;28;20055;-63
2022/10/09 12:20:09;;;;;;;4.38;2.00;;;32.30;33.40;;;;;;5019943;28;20017;-63
2022/10/09 12:22:40;;;;;;;5.13;1.40;;;31.40;33.30;;;;;;5030835;28;20033;-63
2022/10/09 12:25:18;;;;;;;3.95;1.80;;;30.80;35.00;;;;;;5030598;28;20017;-63
2022/10/09 12:27:45;;;;;;;5.03;2.00;;;30.40;35.40;;;;;;5028400;28;20465;-64
2022/10/09 12:30:11;;;;;;;5.32;1.88;;;29.80;35.00;;;;;;5029244;28;20269;-63
2022/10/09 12:32:40;;;;;;;4.50;2.00;;;29.80;35.70;;;;;;5030439;28;20096;-63
2022/10/09 12:35:27;;;;;;;5.43;1.67;;;29.80;36.20;;;;;;5030937;28;20025;-63
2022/10/09 12:37:53;;;;;;;2.28;1.70;;;30.00;35.70;;;;;;5023781;28;20068;-63
2022/10/09 12:40:25;;;;;;;2.78;1.30;;;30.70;35.30;;;;;;5030573;28;20021;-63
2022/10/09 12:42:52;;;;;;;3.40;1.80;;;30.80;34.70;;;;;;5035903;28;20041;-63
2022/10/09 12:45:21;;;;;;;4.35;1.50;;;30.60;35.30;;;;;;5035193;28;20047;-63
2022/10/09 12:47:47;;;;;;;4.10;1.80;;;30.50;35.50;;;;;;5034466;28;20389;-63
2022/10/09 12:50:15;;;;;;;5.70;2.10;;;30.30;35.40;;;;;;5035238;28;20030;-63
2022/10/09 12:52:49;;;;;;;6.75;2.17;;;29.90;35.80;;;;;;5034276;28;20100;-63
2022/10/09 12:55:29;;;;;;;3.58;1.45;;;29.50;35.10;;;;;;5034603;28;20026;-63
2022/10/09 12:58:18;;;;;;;5.05;2.42;;;28.90;36.90;;;;;;5034758;28;20017;-63
2022/10/09 13:00:53;;;;;;;4.28;1.80;;;29.00;37.00;;;;;;5035305;28;20026;-63
2022/10/09 13:03:33;;;;;;;4.30;1.95;;;28.80;37.40;;;;;;5030558;28;20030;-63
2022/10/09 13:06:00;;;;;;;4.40;1.83;;;28.50;37.70;;;;;;5016413;28;20040;-63
2022/10/09 13:08:29;;;;;;;3.95;2.10;;;28.40;38.20;;;;;;5035288;28;20065;-63